createdAt,value
2023-04-11T00:01:56.975Z,2.08
2023-04-11T00:04:25.585Z,2.30
2023-04-11T00:09:19.195Z,2.35
2023-04-11T00:11:45.981Z,2.47
2023-04-11T00:14:12.822Z,2.33
2023-04-11T00:16:41.416Z,2.55
2023-04-11T00:19:09.470Z,2.80
2023-04-11T00:21:39.878Z,2.50
2023-04-11T00:24:09.800Z,2.80
2023-04-11T00:26:36.531Z,3.05
2023-04-11T00:29:03.468Z,3.17
2023-04-11T00:31:30.468Z,3.25
2023-04-11T00:33:57.345Z,3.08
2023-04-11T00:36:24.214Z,3.10
2023-04-11T00:38:51.006Z,3.00
2023-04-11T00:41:17.816Z,3.55
2023-04-11T00:43:44.556Z,2.90
2023-04-11T00:46:12.291Z,3.53
2023-04-11T00:48:39.142Z,2.50
2023-04-11T00:51:06.151Z,3.30
2023-04-11T00:53:32.990Z,3.10
2023-04-11T00:56:00.459Z,3.45
2023-04-11T00:58:28.058Z,3.53
2023-04-11T01:00:55.184Z,3.08
2023-04-11T01:03:23.004Z,2.65
2023-04-11T01:05:54.537Z,3.17
2023-04-11T01:08:22.406Z,3.13
2023-04-11T01:10:50.184Z,3.42
2023-04-11T01:13:17.737Z,3.25
2023-04-11T01:15:44.560Z,2.92
2023-04-11T01:18:11.773Z,3.53
2023-04-11T01:20:38.711Z,3.28
2023-04-11T01:23:06.341Z,3.65
2023-04-11T01:25:33.147Z,2.75
2023-04-11T01:28:00.181Z,2.50
2023-04-11T01:30:27.010Z,2.50
2023-04-11T01:32:53.841Z,2.55
2023-04-11T01:35:21.261Z,2.45
2023-04-11T01:37:48.064Z,2.60
2023-04-11T01:40:21.276Z,2.17
2023-04-11T01:42:48.502Z,2.50
2023-04-11T01:45:15.379Z,1.95
2023-04-11T01:47:42.353Z,1.95
2023-04-11T01:50:09.622Z,1.30
2023-04-11T01:52:36.446Z,1.40
2023-04-11T01:55:03.486Z,1.50
2023-04-11T01:57:31.024Z,1.70
2023-04-11T01:59:57.873Z,1.25
2023-04-11T02:02:26.057Z,1.23
2023-04-11T02:04:52.937Z,1.42
2023-04-11T02:07:20.941Z,1.25
2023-04-11T02:09:47.830Z,1.35
2023-04-11T02:12:14.651Z,1.38
2023-04-11T02:14:44.838Z,1.50
2023-04-11T02:17:13.278Z,1.30
2023-04-11T02:19:45.521Z,1.40
2023-04-11T02:22:13.293Z,1.38
2023-04-11T02:24:40.510Z,1.40
2023-04-11T02:27:07.584Z,1.45
2023-04-11T02:29:34.613Z,1.58
2023-04-11T02:32:01.780Z,1.35
2023-04-11T02:34:28.675Z,1.50
2023-04-11T02:36:55.769Z,1.70
2023-04-11T02:39:25.395Z,1.20
2023-04-11T02:41:52.305Z,1.33
2023-04-11T02:44:19.533Z,1.23
2023-04-11T02:46:46.961Z,1.15
2023-04-11T02:49:13.790Z,1.30
2023-04-11T02:51:41.036Z,1.52
2023-04-11T02:54:08.247Z,1.25
2023-04-11T02:56:38.890Z,1.15
2023-04-11T02:59:06.792Z,1.30
2023-04-11T03:01:34.271Z,1.40
2023-04-11T03:04:01.414Z,1.23
2023-04-11T03:06:39.413Z,1.17
2023-04-11T03:09:06.329Z,1.33
2023-04-11T03:11:33.626Z,1.10
2023-04-11T03:14:01.498Z,1.05
2023-04-11T03:16:28.381Z,1.30
2023-04-11T03:18:55.465Z,1.23
2023-04-11T03:21:23.229Z,1.10
2023-04-11T03:23:50.123Z,1.30
2023-04-11T03:26:17.286Z,1.30
2023-04-11T03:28:44.857Z,1.27
2023-04-11T03:31:15.533Z,1.00
2023-04-11T03:33:42.489Z,1.38
2023-04-11T03:36:09.586Z,1.50
2023-04-11T03:38:36.373Z,1.33
2023-04-11T03:41:03.479Z,1.35
2023-04-11T03:43:30.342Z,1.70
2023-04-11T03:45:57.302Z,1.52
2023-04-11T03:48:34.300Z,1.23
2023-04-11T03:51:06.443Z,1.05
2023-04-11T03:53:41.490Z,1.60
2023-04-11T03:56:21.449Z,1.20
2023-04-11T03:58:48.648Z,1.38
2023-04-11T04:01:16.547Z,1.38
2023-04-11T04:03:43.497Z,1.02
2023-04-11T04:06:13.421Z,1.35
2023-04-11T04:08:40.738Z,1.13
2023-04-11T04:11:07.699Z,1.13
2023-04-11T04:16:12.408Z,1.00
2023-04-11T04:18:42.066Z,1.40
2023-04-11T04:21:09.353Z,1.45
2023-04-11T04:23:39.124Z,1.17
2023-04-11T04:26:25.244Z,1.20
2023-04-11T04:29:18.020Z,1.75
2023-04-11T04:31:52.965Z,1.55
2023-04-11T04:34:29.067Z,1.63
2023-04-11T04:36:59.480Z,1.48
2023-04-11T04:39:38.153Z,1.40
2023-04-11T04:42:05.412Z,1.20
2023-04-11T04:44:37.568Z,1.45
2023-04-11T04:47:11.796Z,1.45
2023-04-11T04:49:38.547Z,1.30
2023-04-11T04:52:05.716Z,1.40
2023-04-11T04:54:32.961Z,1.80
2023-04-11T04:57:01.403Z,1.30
2023-04-11T04:59:28.285Z,1.35
2023-04-11T05:02:02.363Z,1.30
2023-04-11T05:04:30.360Z,1.00
2023-04-11T05:06:59.033Z,1.50
2023-04-11T05:09:26.784Z,1.00
2023-04-11T05:12:01.388Z,1.20
2023-04-11T05:14:28.225Z,1.30
2023-04-11T05:16:55.226Z,1.13
2023-04-11T05:19:22.124Z,1.20
2023-04-11T05:21:51.317Z,1.08
2023-04-11T05:24:18.127Z,1.30
2023-04-11T05:26:45.686Z,1.33
2023-04-11T05:29:17.182Z,1.10
2023-04-11T05:31:44.510Z,1.08
2023-04-11T05:34:11.283Z,1.48
2023-04-11T05:36:38.096Z,1.30
2023-04-11T05:39:05.924Z,1.10
2023-04-11T05:41:32.763Z,1.65
2023-04-11T05:44:03.775Z,1.25
2023-04-11T05:46:30.894Z,1.23
2023-04-11T05:48:58.037Z,1.10
2023-04-11T05:51:24.973Z,0.90
2023-04-11T05:53:51.721Z,1.00
2023-04-11T05:56:18.529Z,1.10
2023-04-11T05:58:45.285Z,1.52
2023-04-11T06:01:18.509Z,0.90
2023-04-11T06:03:46.129Z,0.80
2023-04-11T06:06:13.727Z,1.30
2023-04-11T06:08:40.936Z,0.98
2023-04-11T06:11:07.777Z,1.20
2023-04-11T06:13:34.511Z,0.90
2023-04-11T06:16:01.979Z,1.00
2023-04-11T06:18:28.714Z,1.02
2023-04-11T06:20:55.595Z,1.10
2023-04-11T06:23:22.381Z,1.13
2023-04-11T06:25:49.181Z,1.20
2023-04-11T06:28:16.066Z,1.55
2023-04-11T06:30:42.800Z,1.27
2023-04-11T06:33:09.594Z,1.20
2023-04-11T06:35:36.676Z,1.27
2023-04-11T06:38:03.453Z,1.25
2023-04-11T06:40:30.375Z,1.20
2023-04-11T06:42:58.635Z,1.30
2023-04-11T06:45:25.997Z,1.45
2023-04-11T06:47:52.842Z,1.42
2023-04-11T06:50:19.678Z,1.48
2023-04-11T06:52:46.425Z,1.60
2023-04-11T06:55:15.507Z,1.63
2023-04-11T06:57:43.857Z,1.90
2023-04-11T07:00:12.784Z,1.33
2023-04-11T07:02:39.842Z,1.38
2023-04-11T07:05:09.241Z,1.40
2023-04-11T07:07:36.391Z,1.33
2023-04-11T07:10:03.834Z,1.58
2023-04-11T07:12:30.560Z,1.55
2023-04-11T07:14:57.312Z,1.70
2023-04-11T07:17:24.329Z,1.73
2023-04-11T07:19:51.476Z,1.45
2023-04-11T07:22:18.837Z,1.48
2023-04-11T07:24:46.513Z,1.20
2023-04-11T07:27:14.363Z,1.23
2023-04-11T07:29:41.339Z,1.33
2023-04-11T07:32:08.258Z,1.23
2023-04-11T07:34:35.545Z,1.48
2023-04-11T07:37:02.376Z,1.48
2023-04-11T07:39:29.165Z,1.40
2023-04-11T07:41:56.769Z,1.77
2023-04-11T07:44:24.109Z,1.60
2023-04-11T07:46:51.216Z,2.08
2023-04-11T07:49:17.961Z,1.48
2023-04-11T07:51:44.762Z,1.40
2023-04-11T07:54:12.285Z,1.33
2023-04-11T07:56:39.065Z,1.60
2023-04-11T07:59:05.812Z,1.55
2023-04-11T08:01:32.738Z,1.65
2023-04-11T08:04:00.174Z,1.42
2023-04-11T08:06:29.067Z,1.70
2023-04-11T08:08:56.258Z,1.33
2023-04-11T08:11:23.201Z,1.40
2023-04-11T08:13:50.683Z,1.52
2023-04-11T08:16:17.609Z,1.50
2023-04-11T08:18:45.624Z,1.60
2023-04-11T08:21:12.831Z,1.60
2023-04-11T08:23:39.900Z,1.58
2023-04-11T08:26:07.970Z,1.27
2023-04-11T08:28:35.855Z,1.48
2023-04-11T08:31:04.008Z,1.35
2023-04-11T08:33:31.068Z,1.40
2023-04-11T08:35:57.939Z,1.40
2023-04-11T08:38:24.741Z,1.40
2023-04-11T08:40:52.004Z,1.50
2023-04-11T08:43:19.360Z,1.48
2023-04-11T08:45:46.355Z,1.20
2023-04-11T08:48:13.303Z,1.50
2023-04-11T08:50:43.739Z,1.30
2023-04-11T08:53:11.609Z,1.33
2023-04-11T08:55:48.424Z,1.45
2023-04-11T08:58:15.433Z,1.10
2023-04-11T09:00:42.949Z,1.25
2023-04-11T09:03:12.118Z,1.10
2023-04-11T09:05:44.795Z,1.20
2023-04-11T09:08:13.604Z,1.33
2023-04-11T09:10:45.049Z,1.10
2023-04-11T09:13:26.971Z,1.20
2023-04-11T09:16:12.319Z,1.10
2023-04-11T09:18:44.380Z,1.10
2023-04-11T09:21:14.243Z,0.90
2023-04-11T09:23:41.449Z,1.00
2023-04-11T09:26:10.204Z,1.40
2023-04-11T09:28:44.927Z,1.35
2023-04-11T09:31:14.887Z,1.10
2023-04-11T09:33:57.285Z,1.15
2023-04-11T09:36:27.088Z,1.00
2023-04-11T09:38:54.053Z,1.13
2023-04-11T09:41:36.236Z,1.00
2023-04-11T09:44:03.045Z,1.23
2023-04-11T09:46:29.859Z,1.17
2023-04-11T09:48:56.854Z,1.10
2023-04-11T09:51:35.913Z,1.30
2023-04-11T09:54:05.516Z,1.20
2023-04-11T09:56:34.527Z,1.15
2023-04-11T09:59:03.035Z,1.40
2023-04-11T10:01:29.838Z,1.13
2023-04-11T10:03:57.514Z,1.25
2023-04-11T10:09:12.768Z,1.10
2023-04-11T10:11:44.014Z,1.30
2023-04-11T10:14:41.761Z,1.38
2023-04-11T10:17:18.622Z,0.90
2023-04-11T10:19:48.187Z,1.45
2023-04-11T10:22:43.348Z,1.25
2023-04-11T10:25:16.923Z,1.25
2023-04-11T10:27:54.771Z,0.90
2023-04-11T10:30:41.564Z,1.23
2023-04-11T10:33:17.715Z,0.93
2023-04-11T10:36:03.775Z,0.98
2023-04-11T10:38:49.098Z,1.02
2023-04-11T10:41:29.022Z,1.08
2023-04-11T10:44:20.669Z,1.20
2023-04-11T10:46:56.963Z,1.08
2023-04-11T10:49:36.315Z,0.90
2023-04-11T10:52:22.961Z,0.95
2023-04-11T10:54:51.734Z,0.90
2023-04-11T10:57:19.314Z,1.00
2023-04-11T10:59:51.840Z,0.98
2023-04-11T11:02:22.031Z,0.98
2023-04-11T11:04:49.349Z,0.93
2023-04-11T11:07:17.385Z,1.02
2023-04-11T11:09:49.444Z,1.05
2023-04-11T11:12:16.956Z,1.15
2023-04-11T11:14:46.337Z,1.08
2023-04-11T11:17:15.314Z,1.40
2023-04-11T11:19:46.434Z,1.60
2023-04-11T11:22:17.356Z,1.00
2023-04-11T11:24:44.197Z,1.10
2023-04-11T11:27:21.526Z,1.35
2023-04-11T11:29:48.476Z,1.30
2023-04-11T11:32:25.048Z,1.15
2023-04-11T11:34:53.413Z,1.10
2023-04-11T11:37:21.349Z,1.45
2023-04-11T11:39:49.392Z,1.10
2023-04-11T11:42:16.564Z,1.10
2023-04-11T11:44:43.296Z,1.30
2023-04-11T11:47:17.934Z,1.20
2023-04-11T11:49:52.982Z,1.40
2023-04-11T11:52:35.093Z,1.20
2023-04-11T11:55:06.136Z,1.30
2023-04-11T11:57:34.583Z,1.10
2023-04-11T12:00:05.853Z,1.23
2023-04-11T12:02:35.538Z,0.93
2023-04-11T12:05:06.032Z,1.30
2023-04-11T12:07:36.082Z,1.50
2023-04-11T12:10:08.431Z,1.60
2023-04-11T12:12:40.112Z,1.48
2023-04-11T12:15:17.829Z,1.13
2023-04-11T12:17:55.138Z,1.40
2023-04-11T12:20:26.645Z,1.30
2023-04-11T12:22:55.275Z,1.15
2023-04-11T12:25:22.400Z,1.38
2023-04-11T12:27:49.259Z,1.30
2023-04-11T12:30:16.134Z,1.15
2023-04-11T12:32:43.990Z,1.30
2023-04-11T12:35:11.792Z,1.38
2023-04-11T12:37:38.955Z,1.02
2023-04-11T12:40:11.985Z,1.40
2023-04-11T12:42:53.304Z,1.25
2023-04-11T12:45:22.785Z,1.20
2023-04-11T12:47:49.533Z,1.50
2023-04-11T12:50:16.308Z,0.95
2023-04-11T12:52:43.098Z,1.20
2023-04-11T12:55:10.319Z,1.00
2023-04-11T12:57:37.120Z,1.48
2023-04-11T13:00:08.085Z,1.25
2023-04-11T13:02:42.279Z,1.15
2023-04-11T13:05:13.860Z,1.08
2023-04-11T13:07:41.324Z,1.05
2023-04-11T13:10:08.790Z,1.27
2023-04-11T13:12:41.179Z,1.30
2023-04-11T13:15:09.669Z,1.05
2023-04-11T13:17:36.558Z,1.02
2023-04-11T13:20:07.945Z,1.20
2023-04-11T13:22:34.726Z,1.10
2023-04-11T13:25:01.591Z,1.30
2023-04-11T13:27:28.496Z,1.20
2023-04-11T13:29:55.437Z,1.38
2023-04-11T13:32:22.259Z,1.40
2023-04-11T13:34:49.007Z,1.45
2023-04-11T13:37:15.863Z,0.88
2023-04-11T13:39:42.776Z,1.35
2023-04-11T13:42:10.598Z,1.10
2023-04-11T13:44:37.390Z,0.90
2023-04-11T13:47:04.191Z,1.33
2023-04-11T13:49:30.988Z,1.13
2023-04-11T13:51:57.810Z,1.35
2023-04-11T13:54:24.684Z,1.02
2023-04-11T13:56:51.876Z,1.13
2023-04-11T13:59:18.826Z,1.20
2023-04-11T14:01:45.763Z,1.17
2023-04-11T14:04:12.749Z,1.35
2023-04-11T14:06:40.136Z,1.17
2023-04-11T14:09:07.661Z,0.90
2023-04-11T14:11:34.392Z,1.13
2023-04-11T14:14:01.480Z,0.95
2023-04-11T14:16:28.359Z,1.00
2023-04-11T14:18:55.269Z,1.17
2023-04-11T14:21:22.742Z,1.13
2023-04-11T14:23:49.597Z,1.20
2023-04-11T14:26:16.754Z,1.15
2023-04-11T14:28:43.482Z,1.23
2023-04-11T14:31:10.891Z,1.20
2023-04-11T14:33:37.676Z,1.10
2023-04-11T14:36:04.608Z,1.10
2023-04-11T14:38:31.494Z,0.90
2023-04-11T14:40:58.343Z,0.90
2023-04-11T14:43:25.122Z,0.93
2023-04-11T14:45:56.332Z,1.00
2023-04-11T14:48:25.987Z,0.98
2023-04-11T14:50:54.678Z,0.82
2023-04-11T14:53:22.379Z,1.10
2023-04-11T14:55:49.118Z,1.40
2023-04-11T14:58:16.766Z,1.00
2023-04-11T15:00:43.499Z,1.27
2023-04-11T15:03:10.696Z,0.82
2023-04-11T15:05:37.660Z,0.85
2023-04-11T15:08:04.539Z,0.80
2023-04-11T15:10:31.353Z,1.00
2023-04-11T15:12:58.119Z,1.20
2023-04-11T15:15:24.864Z,1.30
2023-04-11T15:18:19.053Z,1.10
2023-04-11T15:20:45.862Z,0.95
2023-04-11T15:23:12.700Z,1.25
2023-04-11T15:25:39.446Z,1.00
2023-04-11T15:28:06.214Z,0.90
2023-04-11T15:30:32.970Z,1.10
2023-04-11T15:32:59.810Z,1.40
2023-04-11T15:35:26.630Z,1.20
2023-04-11T15:37:53.473Z,1.00
2023-04-11T15:40:20.191Z,1.10
2023-04-11T15:42:47.007Z,0.80
2023-04-11T15:45:13.734Z,1.20
2023-04-11T15:47:40.627Z,1.00
2023-04-11T15:50:07.758Z,0.93
2023-04-11T15:52:34.501Z,0.95
2023-04-11T15:55:01.256Z,0.98
2023-04-11T15:57:28.604Z,1.20
2023-04-11T15:59:55.868Z,1.00
2023-04-11T16:02:23.014Z,1.02
2023-04-11T16:04:52.859Z,1.15
2023-04-11T16:07:23.079Z,1.02
2023-04-11T16:09:50.272Z,0.70
2023-04-11T16:12:17.017Z,0.90
2023-04-11T16:14:45.680Z,1.20
2023-04-11T16:17:13.279Z,0.82
2023-04-11T16:19:40.013Z,1.00
2023-04-11T16:22:06.776Z,0.80
2023-04-11T16:24:33.816Z,0.77
2023-04-11T16:27:02.661Z,1.00
2023-04-11T16:29:29.547Z,1.10
2023-04-11T16:31:56.328Z,1.00
2023-04-11T16:34:23.853Z,1.00
2023-04-11T16:36:51.258Z,0.80
2023-04-11T16:39:18.107Z,1.00
2023-04-11T16:41:44.882Z,0.95
2023-04-11T16:44:11.668Z,1.10
2023-04-11T16:46:41.865Z,1.10
2023-04-11T16:49:09.289Z,1.08
2023-04-11T16:51:36.717Z,0.98
2023-04-11T16:54:09.536Z,1.00
2023-04-11T16:56:39.573Z,0.80
2023-04-11T16:59:06.492Z,1.13
2023-04-11T17:01:33.391Z,1.20
2023-04-11T17:04:01.300Z,1.05
2023-04-11T17:06:28.385Z,1.35
2023-04-11T17:08:57.421Z,1.00
2023-04-11T17:11:24.328Z,1.10
2023-04-11T17:13:51.516Z,1.15
2023-04-11T17:16:18.405Z,1.17
2023-04-11T17:18:45.315Z,1.08
2023-04-11T17:21:12.077Z,1.20
2023-04-11T17:23:42.310Z,0.90
2023-04-11T17:26:10.665Z,0.90
2023-04-11T17:28:38.076Z,1.00
2023-04-11T17:31:16.214Z,1.17
2023-04-11T17:33:43.454Z,1.08
2023-04-11T17:36:12.452Z,1.00
2023-04-11T17:38:40.580Z,1.23
2023-04-11T17:41:14.617Z,1.20
2023-04-11T17:43:43.137Z,1.38
2023-04-11T17:46:10.117Z,1.25
2023-04-11T17:48:37.033Z,1.30
2023-04-11T17:51:05.578Z,1.20
2023-04-11T17:53:33.350Z,1.25
2023-04-11T17:56:04.447Z,1.33
2023-04-11T17:58:31.757Z,1.42
2023-04-11T18:00:58.649Z,1.20
2023-04-11T18:03:26.182Z,1.15
2023-04-11T18:05:54.365Z,1.35
2023-04-11T18:08:29.924Z,1.20
2023-04-11T18:11:04.325Z,0.93
2023-04-11T18:13:31.646Z,1.35
2023-04-11T18:15:58.559Z,1.15
2023-04-11T18:18:25.588Z,0.98
2023-04-11T18:20:52.358Z,1.38
2023-04-11T18:23:19.112Z,1.10
2023-04-11T18:25:46.044Z,1.60
2023-04-11T18:28:12.839Z,1.23
2023-04-11T18:30:39.637Z,1.50
2023-04-11T18:33:06.416Z,1.30
2023-04-11T18:35:33.409Z,1.40
2023-04-11T18:38:00.449Z,1.70
2023-04-11T18:40:27.851Z,1.48
2023-04-11T18:42:56.217Z,1.60
2023-04-11T18:45:23.978Z,1.50
2023-04-11T18:47:51.285Z,1.58
2023-04-11T18:50:18.925Z,1.52
2023-04-11T18:52:46.830Z,1.50
2023-04-11T18:55:15.232Z,1.48
2023-04-11T18:57:47.503Z,1.58
2023-04-11T19:00:18.421Z,1.50
2023-04-11T19:02:46.811Z,1.80
2023-04-11T19:05:14.468Z,2.20
2023-04-11T19:07:42.458Z,1.75
2023-04-11T19:10:10.854Z,1.60
2023-04-11T19:12:38.260Z,1.60
2023-04-11T19:15:09.070Z,1.67
2023-04-11T19:17:38.294Z,1.80
2023-04-11T19:20:12.882Z,1.50
2023-04-11T19:22:41.052Z,1.48
2023-04-11T19:25:12.124Z,1.50
2023-04-11T19:27:41.284Z,1.80
2023-04-11T19:30:10.103Z,1.45
2023-04-11T19:32:40.488Z,1.45
2023-04-11T19:35:10.497Z,1.50
2023-04-11T19:37:37.780Z,1.60
2023-04-11T19:40:13.598Z,1.60
2023-04-11T19:42:42.240Z,1.50
2023-04-11T19:47:36.412Z,1.70
2023-04-11T19:50:03.345Z,1.80
2023-04-11T19:52:30.085Z,1.63
2023-04-11T19:54:56.984Z,1.40
2023-04-11T19:57:27.539Z,1.63
2023-04-11T19:59:54.416Z,1.60
2023-04-11T20:02:21.417Z,1.42
2023-04-11T20:04:49.469Z,2.22
2023-04-11T20:07:16.597Z,1.90
2023-04-11T20:09:43.447Z,1.90
2023-04-11T20:12:10.300Z,2.05
2023-04-11T20:14:38.160Z,1.90
2023-04-11T20:17:06.328Z,1.85
2023-04-11T20:19:33.245Z,1.98
2023-04-11T20:22:01.144Z,1.80
2023-04-11T20:24:28.105Z,1.88
2023-04-11T20:26:55.329Z,1.63
2023-04-11T20:29:24.704Z,1.80
2023-04-11T20:31:51.504Z,1.70
2023-04-11T20:34:18.233Z,2.00
2023-04-11T20:36:45.001Z,1.92
2023-04-11T20:39:11.789Z,1.90
2023-04-11T20:41:40.443Z,1.90
2023-04-11T20:44:07.423Z,1.92
2023-04-11T20:46:39.244Z,1.65
2023-04-11T20:49:06.174Z,1.55
2023-04-11T20:51:32.902Z,1.70
2023-04-11T20:53:59.654Z,1.77
2023-04-11T20:56:26.407Z,1.85
2023-04-11T20:58:53.125Z,1.80
2023-04-11T21:01:19.917Z,1.45
2023-04-11T21:03:46.988Z,1.52
2023-04-11T21:06:14.066Z,1.80
2023-04-11T21:08:40.916Z,1.75
2023-04-11T21:11:07.696Z,1.63
2023-04-11T21:13:34.422Z,1.40
2023-04-11T21:16:01.299Z,1.90
2023-04-11T21:18:28.851Z,1.40
2023-04-11T21:20:55.687Z,1.48
2023-04-11T21:23:22.487Z,1.60
2023-04-11T21:25:49.283Z,1.52
2023-04-11T21:28:16.075Z,1.67
2023-04-11T21:30:42.794Z,1.73
2023-04-11T21:33:10.704Z,1.58
2023-04-11T21:35:37.505Z,1.65
2023-04-11T21:38:04.302Z,2.08
2023-04-11T21:40:31.181Z,1.35
2023-04-11T21:42:57.957Z,1.60
2023-04-11T21:45:24.724Z,1.60
2023-04-11T21:47:51.718Z,1.35
2023-04-11T21:50:18.868Z,1.55
2023-04-11T21:52:46.390Z,1.52
2023-04-11T21:55:14.516Z,2.42
2023-04-11T21:57:41.538Z,1.85
2023-04-11T22:00:10.978Z,1.83
2023-04-11T22:02:41.138Z,1.83
2023-04-11T22:05:09.322Z,1.80
2023-04-11T22:07:48.407Z,1.70
2023-04-11T22:10:22.132Z,1.65
2023-04-11T22:12:49.085Z,1.90
2023-04-11T22:15:18.577Z,1.70
2023-04-11T22:17:50.318Z,2.00
2023-04-11T22:20:18.177Z,1.65
2023-04-11T22:22:45.047Z,1.67
2023-04-11T22:25:11.892Z,1.50
2023-04-11T22:27:38.844Z,1.65
2023-04-11T22:30:06.784Z,1.50
2023-04-11T22:32:33.989Z,1.77
2023-04-11T22:35:01.262Z,1.70
2023-04-11T22:37:28.031Z,1.70
2023-04-11T22:39:55.088Z,2.03
2023-04-11T22:42:21.854Z,1.63
2023-04-11T22:44:48.604Z,1.70
2023-04-11T22:47:16.470Z,1.70
2023-04-11T22:49:44.642Z,1.48
2023-04-11T22:52:15.586Z,1.65
2023-04-11T22:54:43.776Z,1.80
2023-04-11T22:57:10.594Z,1.98
2023-04-11T22:59:37.365Z,1.95
2023-04-11T23:02:04.311Z,1.88
2023-04-11T23:04:32.243Z,1.80
2023-04-11T23:06:59.696Z,2.25
2023-04-11T23:09:28.036Z,1.90
2023-04-11T23:11:54.796Z,1.90
2023-04-11T23:14:22.247Z,2.30
2023-04-11T23:16:49.126Z,2.13
2023-04-11T23:19:17.122Z,1.70
2023-04-11T23:21:44.622Z,1.70
2023-04-11T23:24:11.370Z,1.90
2023-04-11T23:26:38.161Z,1.83
2023-04-11T23:29:04.873Z,1.70
2023-04-11T23:31:32.600Z,1.55
2023-04-11T23:34:00.628Z,1.65
2023-04-11T23:36:27.978Z,1.75
2023-04-11T23:38:54.988Z,1.80
2023-04-11T23:41:21.788Z,1.85
2023-04-11T23:43:48.570Z,1.77
2023-04-11T23:46:16.907Z,2.20
2023-04-11T23:48:44.236Z,1.80
2023-04-11T23:51:11.051Z,1.63
2023-04-11T23:53:38.078Z,1.98
2023-04-11T23:56:05.248Z,1.80
2023-04-11T23:58:33.978Z,1.88
